createdAt,value
2023-09-29T00:01:53.903Z,22.40
2023-09-29T00:04:21.260Z,18.40
2023-09-29T00:06:48.587Z,16.50
2023-09-29T00:09:17.909Z,19.20
2023-09-29T00:11:45.288Z,20.20
2023-09-29T00:14:15.110Z,21.00
2023-09-29T00:16:42.504Z,19.50
2023-09-29T00:19:10.240Z,21.60
2023-09-29T00:21:37.579Z,19.40
2023-09-29T00:24:05.624Z,22.40
2023-09-29T00:26:32.975Z,17.80
2023-09-29T00:29:00.614Z,16.80
2023-09-29T00:31:28.101Z,20.00
2023-09-29T00:33:55.858Z,20.80
2023-09-29T00:36:23.212Z,19.70
2023-09-29T00:38:50.614Z,22.10
2023-09-29T00:41:18.747Z,22.70
2023-09-29T00:43:46.113Z,17.10
2023-09-29T00:46:13.722Z,18.90
2023-09-29T00:48:41.212Z,19.90
2023-09-29T00:51:08.984Z,19.60
2023-09-29T00:53:36.650Z,19.70
2023-09-29T00:56:04.721Z,17.00
2023-09-29T00:58:32.127Z,20.50
2023-09-29T01:01:00.232Z,20.00
2023-09-29T01:03:29.094Z,20.00
2023-09-29T01:05:56.720Z,18.50
2023-09-29T01:08:25.009Z,21.70
2023-09-29T01:10:54.310Z,19.80
2023-09-29T01:13:25.629Z,20.60
2023-09-29T01:15:55.474Z,21.10
2023-09-29T01:18:24.451Z,17.10
2023-09-29T01:20:53.463Z,19.80
2023-09-29T01:23:21.525Z,20.30
2023-09-29T01:25:48.953Z,18.90
2023-09-29T01:28:16.276Z,21.00
2023-09-29T01:30:44.758Z,18.70
2023-09-29T01:33:12.311Z,20.90
2023-09-29T01:35:41.121Z,19.00
2023-09-29T01:38:08.864Z,19.90
2023-09-29T01:40:36.318Z,17.30
2023-09-29T01:43:04.149Z,23.30
2023-09-29T01:45:33.881Z,20.40
2023-09-29T01:48:04.500Z,22.70
2023-09-29T01:50:35.253Z,18.80
2023-09-29T01:53:03.412Z,16.00
2023-09-29T01:55:31.356Z,22.60
2023-09-29T01:57:59.447Z,20.70
2023-09-29T02:00:30.408Z,21.00
2023-09-29T02:02:59.802Z,20.80
2023-09-29T02:05:27.603Z,19.20
2023-09-29T02:07:56.000Z,18.40
2023-09-29T02:10:23.874Z,20.30
2023-09-29T02:12:55.948Z,19.10
2023-09-29T02:15:23.465Z,22.80
2023-09-29T02:17:51.604Z,18.20
2023-09-29T02:20:22.518Z,22.70
2023-09-29T02:22:50.137Z,20.00
2023-09-29T02:25:22.075Z,19.70
2023-09-29T02:27:49.502Z,18.20
2023-09-29T02:30:17.758Z,20.80
2023-09-29T02:32:46.139Z,22.90
2023-09-29T02:35:14.214Z,18.50
2023-09-29T02:37:42.723Z,21.60
2023-09-29T02:40:13.485Z,21.90
2023-09-29T02:42:41.044Z,23.30
2023-09-29T02:45:08.776Z,20.60
2023-09-29T02:47:36.999Z,25.40
2023-09-29T02:50:05.908Z,20.00
2023-09-29T02:52:33.341Z,20.60
2023-09-29T02:55:00.652Z,18.20
2023-09-29T02:57:28.070Z,18.90
2023-09-29T02:59:55.952Z,26.70
2023-09-29T03:02:23.303Z,20.60
2023-09-29T03:04:52.300Z,23.50
2023-09-29T03:07:19.700Z,21.20
2023-09-29T03:09:47.062Z,17.50
2023-09-29T03:12:14.524Z,24.00
2023-09-29T03:14:41.855Z,22.20
2023-09-29T03:17:09.660Z,27.90
2023-09-29T03:19:38.036Z,25.40
2023-09-29T03:22:05.474Z,20.40
2023-09-29T03:24:35.628Z,22.20
2023-09-29T03:27:03.362Z,22.10
2023-09-29T03:29:30.881Z,20.50
2023-09-29T03:31:58.294Z,20.20
2023-09-29T03:34:25.602Z,21.60
2023-09-29T03:36:53.913Z,18.80
2023-09-29T03:39:21.272Z,23.50
2023-09-29T03:41:48.643Z,17.80
2023-09-29T03:44:16.070Z,22.40
2023-09-29T03:46:44.094Z,21.50
2023-09-29T03:49:11.953Z,24.30
2023-09-29T03:51:39.960Z,24.30
2023-09-29T03:54:10.626Z,19.20
2023-09-29T03:56:38.179Z,22.30
2023-09-29T03:59:05.874Z,22.30
2023-09-29T04:01:33.527Z,22.70
2023-09-29T04:04:02.582Z,23.40
2023-09-29T04:06:31.036Z,22.00
2023-09-29T04:08:59.313Z,25.10
2023-09-29T04:11:28.088Z,22.80
2023-09-29T04:13:55.846Z,25.40
2023-09-29T04:16:23.313Z,21.80
2023-09-29T04:18:50.713Z,24.70
2023-09-29T04:21:20.309Z,25.10
2023-09-29T04:23:48.421Z,19.50
2023-09-29T04:26:23.309Z,27.00
2023-09-29T04:28:53.742Z,27.40
2023-09-29T04:31:21.468Z,23.30
2023-09-29T04:33:49.373Z,22.90
2023-09-29T04:36:16.716Z,25.00
2023-09-29T04:38:44.025Z,28.20
2023-09-29T04:41:11.393Z,26.90
2023-09-29T04:43:38.730Z,28.70
2023-09-29T04:46:06.084Z,28.40
2023-09-29T04:48:33.481Z,26.40
2023-09-29T04:51:01.307Z,26.30
2023-09-29T04:53:28.794Z,24.20
2023-09-29T04:55:59.486Z,29.40
2023-09-29T04:58:26.812Z,23.40
2023-09-29T05:00:54.231Z,27.70
2023-09-29T05:03:21.735Z,23.40
2023-09-29T05:05:49.216Z,25.90
2023-09-29T05:08:16.633Z,22.60
2023-09-29T05:10:45.192Z,31.00
2023-09-29T05:13:12.616Z,22.10
2023-09-29T05:15:40.013Z,22.40
2023-09-29T05:18:07.463Z,24.10
2023-09-29T05:20:35.017Z,25.10
2023-09-29T05:23:02.411Z,24.40
2023-09-29T05:25:29.865Z,27.00
2023-09-29T05:27:57.190Z,24.50
2023-09-29T05:30:24.914Z,25.00
2023-09-29T05:32:52.338Z,26.80
2023-09-29T05:35:19.788Z,23.70
2023-09-29T05:37:47.136Z,24.30
2023-09-29T05:40:14.453Z,21.90
2023-09-29T05:42:53.174Z,26.30
2023-09-29T05:45:24.415Z,25.90
2023-09-29T05:47:53.681Z,26.20
2023-09-29T05:50:21.697Z,24.70
2023-09-29T05:55:19.391Z,25.20
2023-09-29T05:57:46.765Z,21.10
2023-09-29T06:00:15.002Z,26.60
2023-09-29T06:02:42.537Z,21.30
2023-09-29T06:05:11.281Z,23.90
2023-09-29T06:07:38.629Z,23.50
2023-09-29T06:10:07.389Z,26.30
2023-09-29T06:12:34.969Z,28.10
2023-09-29T06:15:02.740Z,25.60
2023-09-29T06:17:31.203Z,22.00
2023-09-29T06:19:59.026Z,23.40
2023-09-29T06:22:26.500Z,33.30
2023-09-29T06:24:53.858Z,22.70
2023-09-29T06:27:21.800Z,25.20
2023-09-29T06:29:51.566Z,25.70
2023-09-29T06:32:19.218Z,28.10
2023-09-29T06:34:46.656Z,26.00
2023-09-29T06:37:13.953Z,32.90
2023-09-29T06:39:41.391Z,32.50
2023-09-29T06:42:09.827Z,30.50
2023-09-29T06:44:38.180Z,29.10
2023-09-29T06:47:05.556Z,31.20
2023-09-29T06:49:32.914Z,35.50
2023-09-29T06:52:00.364Z,25.90
2023-09-29T06:54:27.832Z,32.50
2023-09-29T06:56:55.387Z,24.80
2023-09-29T06:59:22.958Z,30.30
2023-09-29T07:01:50.353Z,31.40
2023-09-29T07:04:19.345Z,33.80
2023-09-29T07:06:47.314Z,25.80
2023-09-29T07:09:15.521Z,26.30
2023-09-29T07:11:43.424Z,29.10
2023-09-29T07:14:11.180Z,29.60
2023-09-29T07:16:39.929Z,29.20
2023-09-29T07:19:07.438Z,41.10
2023-09-29T07:21:34.872Z,26.00
2023-09-29T07:24:02.262Z,26.90
2023-09-29T07:26:30.622Z,31.20
2023-09-29T07:29:03.161Z,29.70
2023-09-29T07:31:40.101Z,28.30
2023-09-29T07:34:07.535Z,24.30
2023-09-29T07:36:36.620Z,31.50
2023-09-29T07:39:05.788Z,25.20
2023-09-29T07:41:33.562Z,29.30
2023-09-29T07:44:01.120Z,34.00
2023-09-29T07:46:28.587Z,25.70
2023-09-29T07:48:56.316Z,29.20
2023-09-29T07:51:26.147Z,30.10
2023-09-29T07:53:53.614Z,37.90
2023-09-29T07:56:20.964Z,29.70
2023-09-29T07:58:48.341Z,24.60
2023-09-29T08:01:15.709Z,26.60
2023-09-29T08:03:43.551Z,30.50
2023-09-29T08:06:11.484Z,31.70
2023-09-29T08:08:38.884Z,26.20
2023-09-29T08:11:06.292Z,31.40
2023-09-29T08:13:33.605Z,28.10
2023-09-29T08:16:01.341Z,35.60
2023-09-29T08:18:30.444Z,24.10
2023-09-29T08:20:58.244Z,21.80
2023-09-29T08:23:25.608Z,29.90
2023-09-29T08:25:53.020Z,24.70
2023-09-29T08:28:20.484Z,22.60
2023-09-29T08:30:47.992Z,25.80
2023-09-29T08:33:25.075Z,22.80
2023-09-29T08:36:00.405Z,29.10
2023-09-29T08:38:27.884Z,11.40
2023-09-29T08:40:56.254Z,12.50
2023-09-29T08:43:25.706Z,12.80
2023-09-29T08:45:53.155Z,13.70
2023-09-29T08:48:20.593Z,12.60
2023-09-29T08:50:56.960Z,16.40
2023-09-29T08:53:25.421Z,12.80
2023-09-29T08:55:54.564Z,13.30
2023-09-29T08:58:23.163Z,11.10
2023-09-29T09:00:53.414Z,12.10
2023-09-29T09:03:21.326Z,13.20
2023-09-29T09:05:48.969Z,9.50
2023-09-29T09:08:16.874Z,9.60
2023-09-29T09:10:44.588Z,8.10
2023-09-29T09:13:22.025Z,7.90
2023-09-29T09:15:59.519Z,7.00
2023-09-29T09:18:30.020Z,7.80
2023-09-29T09:20:58.490Z,8.00
2023-09-29T09:23:26.369Z,9.30
2023-09-29T09:25:55.693Z,9.10
2023-09-29T09:28:23.484Z,12.10
2023-09-29T09:31:01.034Z,9.20
2023-09-29T09:33:29.902Z,8.20
2023-09-29T09:36:08.009Z,11.80
2023-09-29T09:38:35.374Z,8.50
2023-09-29T09:41:02.788Z,7.50
2023-09-29T09:43:30.897Z,7.70
2023-09-29T09:46:07.993Z,8.40
2023-09-29T09:48:46.866Z,9.20
2023-09-29T09:51:18.513Z,8.40
2023-09-29T09:53:47.509Z,7.80
2023-09-29T09:56:20.696Z,9.50
2023-09-29T09:58:50.637Z,8.40
2023-09-29T10:01:19.577Z,6.80
2023-09-29T10:03:47.144Z,9.80
2023-09-29T10:06:15.146Z,6.60
2023-09-29T10:08:43.649Z,8.90
2023-09-29T10:11:15.921Z,8.50
2023-09-29T10:13:53.545Z,7.40
2023-09-29T10:16:25.484Z,7.40
2023-09-29T10:18:57.941Z,11.70
2023-09-29T10:21:26.669Z,7.60
2023-09-29T10:23:54.141Z,11.10
2023-09-29T10:26:22.197Z,10.40
2023-09-29T10:28:50.420Z,7.50
2023-09-29T10:31:18.669Z,7.00
2023-09-29T10:33:53.445Z,8.70
2023-09-29T10:36:21.815Z,7.90
2023-09-29T10:38:49.371Z,7.10
2023-09-29T10:41:33.377Z,7.30
2023-09-29T10:44:02.392Z,9.00
2023-09-29T10:46:30.499Z,7.70
2023-09-29T10:48:58.339Z,8.50
2023-09-29T10:51:31.940Z,6.20
2023-09-29T10:54:04.339Z,7.10
2023-09-29T10:56:32.133Z,8.70
2023-09-29T10:59:00.353Z,8.50
2023-09-29T11:01:32.879Z,10.10
2023-09-29T11:04:04.867Z,7.10
2023-09-29T11:06:40.437Z,6.90
2023-09-29T11:09:09.042Z,9.70
2023-09-29T11:11:37.697Z,9.70
2023-09-29T11:14:06.272Z,7.50
2023-09-29T11:16:34.205Z,7.20
2023-09-29T11:19:12.836Z,9.20
2023-09-29T11:21:41.247Z,7.10
2023-09-29T11:24:10.868Z,7.10
2023-09-29T11:26:52.997Z,8.90
2023-09-29T11:29:24.310Z,7.60
2023-09-29T11:31:53.408Z,8.20
2023-09-29T11:34:21.180Z,8.30
2023-09-29T11:36:49.647Z,8.80
2023-09-29T11:39:22.464Z,7.90
2023-09-29T11:41:50.431Z,7.10
2023-09-29T11:44:18.620Z,11.30
2023-09-29T11:46:46.398Z,11.50
2023-09-29T11:49:13.895Z,7.00
2023-09-29T11:51:41.276Z,7.80
2023-09-29T11:54:08.807Z,7.90
2023-09-29T11:57:41.390Z,10.00
2023-09-29T12:00:12.513Z,7.70
2023-09-29T12:02:40.742Z,9.20
2023-09-29T12:05:12.396Z,7.80
2023-09-29T12:07:39.835Z,7.10
2023-09-29T12:10:08.086Z,9.20
2023-09-29T12:12:35.440Z,7.60
2023-09-29T12:15:03.543Z,7.20
2023-09-29T12:17:31.427Z,8.10
2023-09-29T12:19:59.683Z,7.90
2023-09-29T12:22:27.163Z,6.80
2023-09-29T12:24:54.568Z,7.10
2023-09-29T12:27:22.064Z,7.20
2023-09-29T12:29:49.759Z,7.40
2023-09-29T12:32:17.246Z,7.80
2023-09-29T12:34:44.938Z,8.40
2023-09-29T12:37:12.779Z,9.20
2023-09-29T12:39:40.796Z,7.80
2023-09-29T12:42:11.906Z,8.20
2023-09-29T12:44:39.529Z,8.60
2023-09-29T12:47:07.024Z,8.30
2023-09-29T12:49:34.545Z,7.50
2023-09-29T12:52:03.052Z,8.60
2023-09-29T12:54:31.665Z,10.20
2023-09-29T12:57:03.384Z,11.30
2023-09-29T12:59:37.663Z,9.40
2023-09-29T13:02:11.383Z,8.10
2023-09-29T13:04:39.186Z,9.30
2023-09-29T13:07:06.609Z,7.10
2023-09-29T13:09:35.000Z,8.80
2023-09-29T13:12:10.634Z,8.70
2023-09-29T13:14:44.974Z,9.30
2023-09-29T13:17:14.156Z,10.20
2023-09-29T13:19:42.032Z,8.30
2023-09-29T13:22:09.402Z,9.40
2023-09-29T13:24:36.802Z,9.00
2023-09-29T13:27:04.280Z,10.40
2023-09-29T13:29:31.731Z,8.20
2023-09-29T13:31:59.445Z,11.30
2023-09-29T13:34:27.992Z,9.30
2023-09-29T13:36:55.381Z,13.10
2023-09-29T13:39:22.855Z,8.90
2023-09-29T13:41:50.415Z,10.30
2023-09-29T13:44:18.121Z,8.50
2023-09-29T13:47:02.738Z,11.50
2023-09-29T13:49:33.724Z,10.80
2023-09-29T13:52:01.289Z,9.30
2023-09-29T13:54:28.645Z,9.40
2023-09-29T13:56:56.833Z,8.50
2023-09-29T13:59:24.275Z,13.30
2023-09-29T14:03:06.059Z,9.20
2023-09-29T14:05:42.751Z,9.80
2023-09-29T14:08:10.189Z,9.40
2023-09-29T14:10:37.997Z,10.50
2023-09-29T14:13:06.077Z,10.00
2023-09-29T14:15:34.208Z,11.20
2023-09-29T14:18:01.953Z,10.60
2023-09-29T14:20:37.448Z,11.10
2023-09-29T14:23:05.736Z,11.60
2023-09-29T14:25:34.027Z,14.70
2023-09-29T14:28:02.874Z,11.50
2023-09-29T14:30:30.900Z,11.10
2023-09-29T14:33:03.772Z,9.70
2023-09-29T14:38:03.327Z,13.70
2023-09-29T14:40:30.843Z,13.40
2023-09-29T14:42:58.195Z,13.50
2023-09-29T14:45:25.775Z,14.10
2023-09-29T14:47:54.164Z,14.60
2023-09-29T14:50:21.703Z,11.00
2023-09-29T14:52:49.006Z,14.90
2023-09-29T14:55:16.413Z,15.00
2023-09-29T14:57:43.744Z,11.90
2023-09-29T15:00:14.252Z,12.90
2023-09-29T15:02:41.873Z,16.30
2023-09-29T15:05:09.335Z,12.70
2023-09-29T15:07:36.710Z,12.70
2023-09-29T15:10:04.441Z,16.70
2023-09-29T15:12:31.817Z,10.70
2023-09-29T15:14:59.199Z,13.80
2023-09-29T15:17:26.718Z,12.10
2023-09-29T15:19:54.072Z,11.20
2023-09-29T15:22:26.734Z,12.80
2023-09-29T15:27:22.391Z,10.90
2023-09-29T15:29:49.765Z,11.40
2023-09-29T15:32:17.198Z,13.70
2023-09-29T15:34:44.550Z,15.50
2023-09-29T15:37:11.953Z,15.90
2023-09-29T15:39:39.266Z,12.30
2023-09-29T15:42:07.079Z,15.90
2023-09-29T15:44:34.549Z,16.00
2023-09-29T15:47:04.112Z,14.10
2023-09-29T15:49:33.032Z,12.30
2023-09-29T15:52:00.420Z,16.30
2023-09-29T15:54:28.750Z,20.20
2023-09-29T15:56:57.592Z,20.30
2023-09-29T15:59:24.976Z,16.70
2023-09-29T16:01:52.654Z,15.90
2023-09-29T16:04:20.839Z,15.40
2023-09-29T16:06:48.423Z,16.80
2023-09-29T16:09:15.811Z,18.80
2023-09-29T16:11:43.145Z,16.60
2023-09-29T16:14:11.803Z,16.80
2023-09-29T16:16:43.856Z,13.00
2023-09-29T16:19:11.182Z,20.60
2023-09-29T16:21:38.536Z,12.20
2023-09-29T16:24:06.111Z,17.40
2023-09-29T16:26:33.485Z,16.10
2023-09-29T16:29:00.913Z,19.60
2023-09-29T16:31:29.967Z,17.10
2023-09-29T16:33:58.533Z,13.70
2023-09-29T16:36:26.734Z,13.60
2023-09-29T16:38:54.311Z,15.90
2023-09-29T16:41:26.207Z,17.30
2023-09-29T16:43:54.120Z,21.20
2023-09-29T16:46:22.071Z,20.70
2023-09-29T16:48:51.210Z,17.50
2023-09-29T16:51:18.682Z,18.00
2023-09-29T16:53:46.208Z,19.90
2023-09-29T16:56:13.743Z,15.80
2023-09-29T16:58:42.392Z,14.90
2023-09-29T17:01:11.466Z,18.70
2023-09-29T17:03:39.120Z,17.40
2023-09-29T17:06:06.707Z,19.00
2023-09-29T17:08:35.493Z,16.60
2023-09-29T17:11:19.376Z,12.50
2023-09-29T17:13:47.452Z,17.30
2023-09-29T17:16:15.246Z,15.20
2023-09-29T17:18:46.384Z,14.20
2023-09-29T17:21:15.413Z,16.10
2023-09-29T17:23:43.430Z,13.30
2023-09-29T17:26:11.437Z,17.80
2023-09-29T17:28:38.844Z,18.90
2023-09-29T17:31:08.278Z,15.30
2023-09-29T17:33:37.253Z,16.10
2023-09-29T17:36:06.660Z,13.60
2023-09-29T17:38:36.946Z,14.70
2023-09-29T17:41:04.438Z,14.30
2023-09-29T17:43:32.293Z,12.30
2023-09-29T17:46:04.306Z,11.30
2023-09-29T17:48:42.334Z,16.20
2023-09-29T17:51:16.229Z,12.40
2023-09-29T17:53:46.446Z,17.80
2023-09-29T17:56:14.343Z,12.20
2023-09-29T17:58:42.178Z,13.60
2023-09-29T18:01:13.142Z,13.10
2023-09-29T18:03:42.412Z,11.70
2023-09-29T18:06:11.716Z,12.70
2023-09-29T18:08:41.738Z,16.70
2023-09-29T18:11:09.945Z,15.00
2023-09-29T18:13:38.144Z,15.40
2023-09-29T18:16:09.518Z,17.20
2023-09-29T18:18:37.093Z,14.50
2023-09-29T18:21:04.520Z,16.50
2023-09-29T18:23:31.958Z,16.80
2023-09-29T18:25:59.310Z,17.00
2023-09-29T18:28:27.754Z,16.40
2023-09-29T18:30:55.993Z,15.90
2023-09-29T18:33:24.104Z,18.70
2023-09-29T18:35:53.004Z,12.10
2023-09-29T18:38:20.432Z,17.00
2023-09-29T18:40:47.769Z,16.00
2023-09-29T18:43:15.640Z,19.30
2023-09-29T18:45:42.992Z,16.00
2023-09-29T18:48:10.569Z,16.20
2023-09-29T18:50:38.597Z,17.60
2023-09-29T18:53:06.953Z,18.70
2023-09-29T18:55:35.260Z,16.90
2023-09-29T18:58:02.682Z,16.70
2023-09-29T19:00:33.912Z,16.60
2023-09-29T19:03:01.675Z,24.10
2023-09-29T19:05:29.119Z,18.50
2023-09-29T19:07:56.511Z,18.80
2023-09-29T19:10:23.973Z,19.00
2023-09-29T19:12:54.420Z,21.10
2023-09-29T19:15:23.138Z,18.00
2023-09-29T19:17:50.560Z,22.80
2023-09-29T19:20:18.009Z,15.80
2023-09-29T19:22:45.426Z,16.90
2023-09-29T19:25:12.827Z,18.70
2023-09-29T19:27:40.183Z,22.90
2023-09-29T19:30:08.399Z,21.50
2023-09-29T19:32:37.169Z,16.00
2023-09-29T19:35:05.806Z,18.10
2023-09-29T19:37:33.181Z,17.40
2023-09-29T19:40:00.555Z,23.80
2023-09-29T19:42:27.971Z,22.60
2023-09-29T19:44:55.810Z,16.90
2023-09-29T19:47:23.684Z,21.30
2023-09-29T19:49:52.596Z,20.00
2023-09-29T19:52:20.022Z,19.10
2023-09-29T19:54:47.399Z,18.20
2023-09-29T19:57:14.918Z,21.40
2023-09-29T19:59:42.257Z,20.70
2023-09-29T20:02:09.864Z,22.80
2023-09-29T20:04:37.347Z,20.10
2023-09-29T20:07:04.812Z,19.60
2023-09-29T20:09:33.040Z,22.60
2023-09-29T20:12:00.417Z,22.00
2023-09-29T20:14:28.209Z,17.60
2023-09-29T20:16:55.620Z,21.30
2023-09-29T20:19:23.227Z,25.30
2023-09-29T20:21:50.613Z,25.90
2023-09-29T20:24:18.015Z,25.70
2023-09-29T20:26:46.182Z,22.90
2023-09-29T20:29:13.561Z,25.50
2023-09-29T20:31:41.568Z,22.00
2023-09-29T20:34:09.349Z,25.70
2023-09-29T20:36:36.638Z,20.60
2023-09-29T20:39:06.412Z,25.00
2023-09-29T20:41:34.028Z,24.20
2023-09-29T20:44:01.658Z,22.40
2023-09-29T20:46:29.152Z,21.60
2023-09-29T20:48:56.629Z,25.30
2023-09-29T20:51:24.055Z,21.30
2023-09-29T20:53:52.194Z,20.90
2023-09-29T20:56:19.785Z,26.00
2023-09-29T20:58:47.242Z,20.40
2023-09-29T21:01:15.435Z,22.00
2023-09-29T21:03:44.704Z,19.80
2023-09-29T21:06:12.284Z,23.10
2023-09-29T21:08:39.847Z,23.80
2023-09-29T21:11:07.200Z,22.60
2023-09-29T21:13:34.625Z,20.10
2023-09-29T21:16:05.561Z,20.20
2023-09-29T21:18:33.977Z,19.00
2023-09-29T21:21:01.996Z,18.40
2023-09-29T21:23:30.008Z,18.90
2023-09-29T21:25:57.362Z,21.10
2023-09-29T21:28:24.760Z,18.50
2023-09-29T21:30:52.075Z,18.50
2023-09-29T21:33:19.452Z,21.10
2023-09-29T21:35:46.844Z,19.80
2023-09-29T21:38:14.499Z,22.10
2023-09-29T21:40:41.842Z,19.80
2023-09-29T21:43:09.252Z,16.70
2023-09-29T21:45:36.735Z,16.30
2023-09-29T21:48:04.584Z,18.70
2023-09-29T21:50:32.020Z,24.00
2023-09-29T21:52:59.366Z,23.60
2023-09-29T21:55:28.914Z,19.50
2023-09-29T21:57:57.381Z,16.90
2023-09-29T22:00:25.002Z,21.40
2023-09-29T22:02:52.831Z,21.10
2023-09-29T22:05:21.476Z,26.20
2023-09-29T22:07:50.227Z,21.30
2023-09-29T22:10:17.891Z,22.50
2023-09-29T22:12:46.798Z,20.40
2023-09-29T22:15:17.148Z,21.40
2023-09-29T22:17:45.377Z,21.80
2023-09-29T22:20:13.142Z,18.60
2023-09-29T22:22:40.536Z,20.50
2023-09-29T22:25:08.362Z,20.80
2023-09-29T22:27:38.596Z,21.50
2023-09-29T22:30:06.817Z,18.40
2023-09-29T22:32:34.566Z,19.10
2023-09-29T22:35:02.017Z,21.80
2023-09-29T22:37:29.448Z,20.10
2023-09-29T22:39:57.794Z,18.50
2023-09-29T22:42:27.294Z,19.90
2023-09-29T22:44:54.784Z,20.00
2023-09-29T22:47:22.113Z,21.40
2023-09-29T22:49:49.700Z,18.90
2023-09-29T22:52:17.059Z,18.00
2023-09-29T22:54:45.258Z,24.30
2023-09-29T22:57:12.669Z,18.00
2023-09-29T22:59:40.197Z,17.60
2023-09-29T23:02:09.357Z,19.80
2023-09-29T23:04:37.308Z,21.50
2023-09-29T23:07:04.657Z,17.40
2023-09-29T23:09:32.000Z,17.80
2023-09-29T23:12:03.994Z,19.10
2023-09-29T23:14:32.026Z,21.80
2023-09-29T23:16:59.488Z,18.30
2023-09-29T23:19:28.154Z,20.90
2023-09-29T23:21:55.732Z,19.80
2023-09-29T23:24:23.191Z,17.90
2023-09-29T23:26:50.857Z,22.30
2023-09-29T23:29:18.354Z,19.00
2023-09-29T23:31:46.300Z,20.30
2023-09-29T23:34:13.941Z,18.60
2023-09-29T23:36:41.658Z,22.10
2023-09-29T23:39:12.830Z,20.30
2023-09-29T23:41:41.444Z,19.40
2023-09-29T23:44:09.454Z,19.30
2023-09-29T23:46:40.345Z,21.20
2023-09-29T23:49:08.134Z,19.30
2023-09-29T23:51:35.964Z,19.80
2023-09-29T23:54:03.966Z,22.30
2023-09-29T23:56:31.501Z,21.20
2023-09-29T23:59:00.040Z,17.80
